createdAt,value
2018-07-26T00:00:24.210Z,1010.55
2018-07-26T00:01:24.219Z,1010.52
2018-07-26T00:02:24.210Z,1010.49
2018-07-26T00:03:24.209Z,1010.45
2018-07-26T00:04:24.214Z,1010.47
2018-07-26T00:05:24.219Z,1010.47
2018-07-26T00:06:24.219Z,1010.42
2018-07-26T00:07:24.217Z,1010.48
2018-07-26T00:08:24.219Z,1010.50
2018-07-26T00:09:24.224Z,1010.45
2018-07-26T00:10:24.225Z,1010.48
2018-07-26T00:11:24.230Z,1010.53
2018-07-26T00:12:24.232Z,1010.52
2018-07-26T00:13:24.235Z,1010.53
2018-07-26T00:14:24.236Z,1010.52
2018-07-26T00:15:24.233Z,1010.58
2018-07-26T00:16:24.237Z,1010.58
2018-07-26T00:17:24.240Z,1010.58
2018-07-26T00:18:24.239Z,1010.55
2018-07-26T00:19:24.247Z,1010.60
2018-07-26T00:20:24.249Z,1010.62
2018-07-26T00:21:24.249Z,1010.62
2018-07-26T00:22:24.396Z,1010.63
2018-07-26T00:23:24.254Z,1010.60
2018-07-26T00:24:24.257Z,1010.64
2018-07-26T00:25:24.259Z,1010.60
2018-07-26T00:26:24.258Z,1010.57
2018-07-26T00:27:24.258Z,1010.58
2018-07-26T00:28:24.258Z,1010.62
2018-07-26T00:29:24.261Z,1010.60
2018-07-26T00:30:24.263Z,1010.63
2018-07-26T00:31:24.269Z,1010.64
2018-07-26T00:32:24.271Z,1010.64
2018-07-26T00:33:24.274Z,1010.69
2018-07-26T00:34:24.276Z,1010.66
2018-07-26T00:35:24.271Z,1010.65
2018-07-26T00:36:24.273Z,1010.61
2018-07-26T00:37:24.281Z,1010.66
2018-07-26T00:38:24.283Z,1010.64
2018-07-26T00:39:24.280Z,1010.64
2018-07-26T00:40:24.281Z,1010.66
2018-07-26T00:41:24.310Z,1010.63
2018-07-26T00:42:24.283Z,1010.62
2018-07-26T00:43:24.289Z,1010.62
2018-07-26T00:44:24.291Z,1010.61
2018-07-26T00:45:24.295Z,1010.56
2018-07-26T00:46:24.294Z,1010.55
2018-07-26T00:47:24.291Z,1010.54
2018-07-26T00:48:24.294Z,1010.52
2018-07-26T00:49:24.298Z,1010.52
2018-07-26T00:50:24.296Z,1010.53
2018-07-26T00:51:24.303Z,1010.52
2018-07-26T00:52:24.306Z,1010.49
2018-07-26T00:53:24.301Z,1010.47
2018-07-26T00:54:24.305Z,1010.50
2018-07-26T00:55:24.309Z,1010.46
2018-07-26T00:56:24.312Z,1010.48
2018-07-26T00:57:24.311Z,1010.50
2018-07-26T00:58:24.312Z,1010.49
2018-07-26T00:59:24.310Z,1010.52
2018-07-26T01:00:24.314Z,1010.49
2018-07-26T01:01:24.315Z,1010.50
2018-07-26T01:02:24.315Z,1010.49
2018-07-26T01:03:24.322Z,1010.51
2018-07-26T01:04:24.327Z,1010.47
2018-07-26T01:05:24.325Z,1010.53
2018-07-26T01:06:24.324Z,1010.47
2018-07-26T01:07:24.322Z,1010.46
2018-07-26T01:08:24.324Z,1010.49
2018-07-26T01:09:24.331Z,1010.49
2018-07-26T01:10:24.331Z,1010.49
2018-07-26T01:11:24.328Z,1010.44
2018-07-26T01:12:24.329Z,1010.40
2018-07-26T01:13:24.331Z,1010.44
2018-07-26T01:14:24.333Z,1010.44
2018-07-26T01:15:24.340Z,1010.39
2018-07-26T01:16:24.340Z,1010.36
2018-07-26T01:17:24.343Z,1010.37
2018-07-26T01:18:24.343Z,1010.32
2018-07-26T01:19:24.340Z,1010.33
2018-07-26T01:20:24.342Z,1010.33
2018-07-26T01:21:24.376Z,1010.27
2018-07-26T01:22:24.343Z,1010.32
2018-07-26T01:23:24.349Z,1010.35
2018-07-26T01:24:24.350Z,1010.33
2018-07-26T01:25:24.349Z,1010.36
2018-07-26T01:26:24.348Z,1010.34
2018-07-26T01:27:24.354Z,1010.32
2018-07-26T01:28:24.356Z,1010.36
2018-07-26T01:29:24.358Z,1010.38
2018-07-26T01:30:24.364Z,1010.35
2018-07-26T01:31:24.357Z,1010.36
2018-07-26T01:32:24.357Z,1010.35
2018-07-26T01:33:24.360Z,1010.34
2018-07-26T01:34:24.362Z,1010.33
2018-07-26T01:35:24.366Z,1010.34
2018-07-26T01:36:24.368Z,1010.30
2018-07-26T01:37:24.369Z,1010.36
2018-07-26T01:38:24.369Z,1010.35
2018-07-26T01:39:24.366Z,1010.34
2018-07-26T01:40:24.369Z,1010.35
2018-07-26T01:41:24.374Z,1010.34
2018-07-26T01:42:24.375Z,1010.34
2018-07-26T01:43:24.372Z,1010.33
2018-07-26T01:44:24.374Z,1010.33
2018-07-26T01:45:24.375Z,1010.34
2018-07-26T01:46:24.375Z,1010.35
2018-07-26T01:47:24.383Z,1010.31
2018-07-26T01:48:24.383Z,1010.31
2018-07-26T01:49:24.386Z,1010.34
2018-07-26T01:50:24.386Z,1010.30
2018-07-26T01:51:24.382Z,1010.32
2018-07-26T01:52:24.386Z,1010.29
2018-07-26T01:53:24.386Z,1010.28
2018-07-26T01:54:24.385Z,1010.32
2018-07-26T01:55:24.391Z,1010.26
2018-07-26T01:56:24.394Z,1010.30
2018-07-26T01:57:24.390Z,1010.27
2018-07-26T01:58:24.390Z,1010.27
2018-07-26T01:59:24.397Z,1010.25
2018-07-26T02:00:24.400Z,1010.25
2018-07-26T02:01:24.403Z,1010.30
2018-07-26T02:02:24.403Z,1010.32
2018-07-26T02:03:24.398Z,1010.27
2018-07-26T02:04:24.399Z,1010.28
2018-07-26T02:05:24.400Z,1010.29
2018-07-26T02:06:24.400Z,1010.26
2018-07-26T02:07:24.405Z,1010.28
2018-07-26T02:08:24.407Z,1010.23
2018-07-26T02:09:24.410Z,1010.24
2018-07-26T02:10:24.410Z,1010.24
2018-07-26T02:11:24.407Z,1010.24
2018-07-26T02:12:24.409Z,1010.30
2018-07-26T02:13:24.414Z,1010.24
2018-07-26T02:14:24.413Z,1010.24
2018-07-26T02:15:24.410Z,1010.31
2018-07-26T02:16:24.413Z,1010.27
2018-07-26T02:17:24.414Z,1010.22
2018-07-26T02:18:24.416Z,1010.22
2018-07-26T02:19:24.419Z,1010.28
2018-07-26T02:20:24.421Z,1010.24
2018-07-26T02:21:24.422Z,1010.25
2018-07-26T02:22:24.422Z,1010.27
2018-07-26T02:23:24.419Z,1010.29
2018-07-26T02:24:24.424Z,1010.28
2018-07-26T02:25:24.423Z,1010.28
2018-07-26T02:26:24.422Z,1010.32
2018-07-26T02:27:24.430Z,1010.28
2018-07-26T02:28:24.430Z,1010.29
2018-07-26T02:29:24.425Z,1010.26
2018-07-26T02:30:24.427Z,1010.27
2018-07-26T02:31:24.433Z,1010.24
2018-07-26T02:32:24.434Z,1010.23
2018-07-26T02:33:24.434Z,1010.23
2018-07-26T02:34:24.435Z,1010.24
2018-07-26T02:35:24.437Z,1010.21
2018-07-26T02:36:24.433Z,1010.21
2018-07-26T02:37:24.434Z,1010.24
2018-07-26T02:38:24.433Z,1010.24
2018-07-26T02:39:24.446Z,1010.25
2018-07-26T02:40:24.440Z,1010.21
2018-07-26T02:41:24.443Z,1010.23
2018-07-26T02:42:24.442Z,1010.25
2018-07-26T02:43:24.440Z,1010.23
2018-07-26T02:44:24.439Z,1010.20
2018-07-26T02:45:24.446Z,1010.22
2018-07-26T02:46:24.461Z,1010.24
2018-07-26T02:47:24.441Z,1010.21
2018-07-26T02:48:24.444Z,1010.18
2018-07-26T02:49:24.447Z,1010.19
2018-07-26T02:50:24.447Z,1010.25
2018-07-26T02:51:24.450Z,1010.22
2018-07-26T02:52:24.450Z,1010.21
2018-07-26T02:53:24.451Z,1010.22
2018-07-26T02:54:24.451Z,1010.20
2018-07-26T02:55:24.448Z,1010.22
2018-07-26T02:56:24.449Z,1010.21
2018-07-26T02:57:24.453Z,1010.24
2018-07-26T02:58:24.449Z,1010.19
2018-07-26T02:59:24.459Z,1010.20
2018-07-26T03:00:24.458Z,1010.20
2018-07-26T03:01:24.453Z,1010.26
2018-07-26T03:02:24.453Z,1010.26
2018-07-26T03:03:24.460Z,1010.20
2018-07-26T03:04:24.462Z,1010.18
2018-07-26T03:05:24.462Z,1010.24
2018-07-26T03:06:24.469Z,1010.26
2018-07-26T03:07:24.458Z,1010.23
2018-07-26T03:08:24.458Z,1010.22
2018-07-26T03:09:24.460Z,1010.23
2018-07-26T03:10:24.472Z,1010.23
2018-07-26T03:11:24.470Z,1010.23
2018-07-26T03:12:24.467Z,1010.26
2018-07-26T03:13:24.468Z,1010.21
2018-07-26T03:14:24.466Z,1010.28
2018-07-26T03:15:24.463Z,1010.21
2018-07-26T03:16:24.465Z,1010.26
2018-07-26T03:17:24.470Z,1010.25
2018-07-26T03:18:24.470Z,1010.29
2018-07-26T03:19:24.466Z,1010.36
2018-07-26T03:20:24.468Z,1010.37
2018-07-26T03:21:24.472Z,1010.38
2018-07-26T03:22:24.469Z,1010.36
2018-07-26T03:23:24.474Z,1010.36
2018-07-26T03:24:24.475Z,1010.36
2018-07-26T03:25:24.477Z,1010.36
2018-07-26T03:26:24.476Z,1010.35
2018-07-26T03:27:24.473Z,1010.38
2018-07-26T03:28:24.473Z,1010.38
2018-07-26T03:29:24.473Z,1010.33
2018-07-26T03:30:24.473Z,1010.32
2018-07-26T03:31:24.478Z,1010.36
2018-07-26T03:32:24.478Z,1010.33
2018-07-26T03:33:24.475Z,1010.29
2018-07-26T03:34:24.479Z,1010.30
2018-07-26T03:35:24.482Z,1010.30
2018-07-26T03:36:24.480Z,1010.29
2018-07-26T03:37:24.483Z,1010.22
2018-07-26T03:38:24.483Z,1010.26
2018-07-26T03:39:24.479Z,1010.25
2018-07-26T03:40:24.479Z,1010.28
2018-07-26T03:41:24.481Z,1010.27
2018-07-26T03:42:24.484Z,1010.25
2018-07-26T03:43:24.487Z,1010.34
2018-07-26T03:44:24.490Z,1010.26
2018-07-26T03:45:24.486Z,1010.32
2018-07-26T03:46:24.487Z,1010.32
2018-07-26T03:47:24.485Z,1010.24
2018-07-26T03:48:24.483Z,1010.27
2018-07-26T03:49:24.489Z,1010.28
2018-07-26T03:50:24.489Z,1010.27
2018-07-26T03:51:24.534Z,1010.30
2018-07-26T03:52:24.486Z,1010.31
2018-07-26T03:53:24.486Z,1010.30
2018-07-26T03:54:24.487Z,1010.35
2018-07-26T03:55:24.492Z,1010.34
2018-07-26T03:56:24.492Z,1010.38
2018-07-26T03:57:24.492Z,1010.40
2018-07-26T03:58:24.496Z,1010.38
2018-07-26T03:59:24.488Z,1010.39
2018-07-26T04:00:24.490Z,1010.44
2018-07-26T04:01:24.489Z,1010.41
2018-07-26T04:02:24.489Z,1010.42
2018-07-26T04:03:24.538Z,1010.43
2018-07-26T04:04:24.495Z,1010.43
2018-07-26T04:05:24.496Z,1010.39
2018-07-26T04:06:24.491Z,1010.39
2018-07-26T04:07:24.497Z,1010.39
2018-07-26T04:08:24.496Z,1010.39
2018-07-26T04:09:24.498Z,1010.39
2018-07-26T04:10:24.499Z,1010.42
2018-07-26T04:11:24.495Z,1010.41
2018-07-26T04:12:24.499Z,1010.40
2018-07-26T04:13:24.503Z,1010.38
2018-07-26T04:14:24.500Z,1010.39
2018-07-26T04:15:24.496Z,1010.39
2018-07-26T04:16:24.497Z,1010.40
2018-07-26T04:17:24.497Z,1010.37
2018-07-26T04:18:24.498Z,1010.34
2018-07-26T04:19:24.504Z,1010.38
2018-07-26T04:20:24.505Z,1010.34
2018-07-26T04:21:24.500Z,1010.37
2018-07-26T04:22:24.500Z,1010.34
2018-07-26T04:23:24.506Z,1010.38
2018-07-26T04:24:24.507Z,1010.37
2018-07-26T04:25:24.507Z,1010.41
2018-07-26T04:26:24.509Z,1010.39
2018-07-26T04:27:24.504Z,1010.42
2018-07-26T04:28:24.504Z,1010.40
2018-07-26T04:29:24.504Z,1010.41
2018-07-26T04:30:24.504Z,1010.43
2018-07-26T04:31:24.509Z,1010.47
2018-07-26T04:32:24.513Z,1010.50
2018-07-26T04:33:24.511Z,1010.47
2018-07-26T04:34:24.512Z,1010.50
2018-07-26T04:35:24.508Z,1010.52
2018-07-26T04:36:24.508Z,1010.55
2018-07-26T04:37:24.515Z,1010.56
2018-07-26T04:38:24.514Z,1010.55
2018-07-26T04:39:24.511Z,1010.50
2018-07-26T04:40:24.512Z,1010.49
2018-07-26T04:41:24.511Z,1010.48
2018-07-26T04:42:24.512Z,1010.51
2018-07-26T04:43:24.516Z,1010.52
2018-07-26T04:44:24.519Z,1010.48
2018-07-26T04:45:24.519Z,1010.51
2018-07-26T04:46:24.519Z,1010.54
2018-07-26T04:47:24.516Z,1010.47
2018-07-26T04:48:24.517Z,1010.53
2018-07-26T04:49:24.518Z,1010.48
2018-07-26T04:50:24.518Z,1010.52
2018-07-26T04:51:24.525Z,1010.52
2018-07-26T04:52:24.526Z,1010.53
2018-07-26T04:53:24.522Z,1010.62
2018-07-26T04:54:24.522Z,1010.56
2018-07-26T04:55:24.533Z,1010.55
2018-07-26T04:56:24.531Z,1010.66
2018-07-26T04:57:24.531Z,1010.67
2018-07-26T04:58:24.531Z,1010.68
2018-07-26T04:59:24.530Z,1010.72
2018-07-26T05:00:24.531Z,1010.76
2018-07-26T05:01:24.533Z,1010.80
2018-07-26T05:02:24.534Z,1010.82
2018-07-26T05:03:24.540Z,1010.86
2018-07-26T05:04:24.544Z,1010.82
2018-07-26T05:05:24.563Z,1010.89
2018-07-26T05:06:24.547Z,1010.88
2018-07-26T05:07:24.546Z,1010.93
2018-07-26T05:08:24.548Z,1010.93
2018-07-26T05:09:24.556Z,1010.95
2018-07-26T05:10:24.557Z,1010.99
2018-07-26T05:11:24.556Z,1011.05
2018-07-26T05:12:24.558Z,1011.05
2018-07-26T05:13:24.563Z,1011.08
2018-07-26T05:14:24.566Z,1011.08
2018-07-26T05:15:24.580Z,1011.07
2018-07-26T05:16:24.575Z,1011.10
2018-07-26T05:17:24.581Z,1011.13
2018-07-26T05:18:24.594Z,1011.18
2018-07-26T05:19:24.582Z,1011.16
2018-07-26T05:20:24.586Z,1011.12
2018-07-26T05:21:24.593Z,1011.14
2018-07-26T05:22:24.593Z,1011.17
2018-07-26T05:23:24.602Z,1011.22
2018-07-26T05:24:24.608Z,1011.21
2018-07-26T05:25:24.614Z,1011.24
2018-07-26T05:26:24.612Z,1011.22
2018-07-26T05:27:24.621Z,1011.22
2018-07-26T05:28:24.626Z,1011.24
2018-07-26T05:29:24.634Z,1011.29
2018-07-26T05:30:24.650Z,1011.23
2018-07-26T05:31:24.635Z,1011.23
2018-07-26T05:32:24.641Z,1011.31
2018-07-26T05:33:24.647Z,1011.32
2018-07-26T05:34:24.652Z,1011.26
2018-07-26T05:35:24.663Z,1011.27
2018-07-26T05:36:24.667Z,1011.18
2018-07-26T05:37:24.686Z,1011.07
2018-07-26T05:38:24.678Z,1011.01
2018-07-26T05:39:24.680Z,1011.08
2018-07-26T05:40:24.685Z,1011.15
2018-07-26T05:41:24.695Z,1011.25
2018-07-26T05:42:24.700Z,1011.41
2018-07-26T05:43:24.702Z,1011.45
2018-07-26T05:44:24.708Z,1011.44
2018-07-26T05:45:24.714Z,1011.44
2018-07-26T05:46:24.719Z,1011.43
2018-07-26T05:47:24.733Z,1011.50
2018-07-26T05:48:24.737Z,1011.38
2018-07-26T05:49:24.743Z,1011.33
2018-07-26T05:50:24.749Z,1011.29
2018-07-26T05:51:24.750Z,1011.20
2018-07-26T05:52:24.757Z,1011.19
2018-07-26T05:53:24.912Z,1011.20
2018-07-26T05:54:24.775Z,1011.11
2018-07-26T05:55:24.781Z,1011.10
2018-07-26T05:56:24.788Z,1011.06
2018-07-26T05:57:24.789Z,1011.09
2018-07-26T05:58:24.795Z,1011.13
2018-07-26T05:59:24.807Z,1011.10
2018-07-26T06:00:24.813Z,1011.20
2018-07-26T06:01:24.821Z,1011.09
2018-07-26T06:02:24.829Z,1011.12
2018-07-26T06:03:24.831Z,1011.11
2018-07-26T06:04:24.834Z,1011.17
2018-07-26T06:05:24.842Z,1011.18
2018-07-26T06:06:24.847Z,1011.18
2018-07-26T06:07:24.858Z,1011.22
2018-07-26T06:08:24.864Z,1011.27
2018-07-26T06:09:24.870Z,1011.36
2018-07-26T06:10:24.878Z,1011.33
2018-07-26T06:11:24.877Z,1011.38
2018-07-26T06:12:24.884Z,1011.30
2018-07-26T06:13:24.894Z,1011.28
2018-07-26T06:14:24.900Z,1011.23
2018-07-26T06:15:24.902Z,1011.23
2018-07-26T06:16:24.911Z,1011.20
2018-07-26T06:17:24.917Z,1011.21
2018-07-26T06:18:24.938Z,1011.27
2018-07-26T06:19:24.934Z,1011.38
2018-07-26T06:20:24.941Z,1011.38
2018-07-26T06:21:24.945Z,1011.43
2018-07-26T06:22:24.955Z,1011.45
2018-07-26T06:23:24.953Z,1011.81
2018-07-26T06:24:24.959Z,1012.04
2018-07-26T06:25:24.967Z,1011.79
2018-07-26T06:26:24.973Z,1011.48
2018-07-26T06:27:24.989Z,1011.61
2018-07-26T06:28:24.995Z,1011.84
2018-07-26T06:29:24.994Z,1011.55
2018-07-26T06:30:25.000Z,1011.36
2018-07-26T06:31:25.016Z,1011.37
2018-07-26T06:32:25.021Z,1011.32
2018-07-26T06:33:25.101Z,1011.31
2018-07-26T06:34:25.036Z,1011.39
2018-07-26T06:35:25.039Z,1011.44
2018-07-26T06:36:25.045Z,1011.43
2018-07-26T06:37:25.054Z,1011.47
2018-07-26T06:38:25.061Z,1011.51
2018-07-26T06:39:25.137Z,1011.40
2018-07-26T06:40:25.080Z,1011.37
2018-07-26T06:41:25.089Z,1011.32
2018-07-26T06:42:25.096Z,1011.30
2018-07-26T06:43:25.098Z,1011.32
2018-07-26T06:44:25.106Z,1011.30
2018-07-26T06:45:25.119Z,1011.27
2018-07-26T06:46:25.127Z,1011.30
2018-07-26T06:47:25.129Z,1011.30
2018-07-26T06:48:25.136Z,1011.26
2018-07-26T06:49:25.144Z,1011.26
2018-07-26T06:50:25.151Z,1011.21
2018-07-26T06:51:25.164Z,1011.24
2018-07-26T06:52:25.172Z,1011.21
2018-07-26T06:53:25.180Z,1011.23
2018-07-26T06:54:25.186Z,1011.22
2018-07-26T06:55:25.190Z,1011.25
2018-07-26T06:56:25.197Z,1011.24
2018-07-26T06:57:25.206Z,1011.26
2018-07-26T06:58:25.213Z,1011.24
2018-07-26T06:59:25.225Z,1011.27
2018-07-26T07:00:25.232Z,1011.28
2018-07-26T07:01:25.236Z,1011.32
2018-07-26T07:02:25.241Z,1011.32
2018-07-26T07:03:25.255Z,1011.32
2018-07-26T07:04:25.262Z,1011.28
2018-07-26T07:05:25.269Z,1011.29
2018-07-26T07:06:25.275Z,1011.30
2018-07-26T07:07:25.278Z,1011.35
2018-07-26T07:08:25.289Z,1011.39
2018-07-26T07:09:25.295Z,1011.37
2018-07-26T07:10:25.303Z,1011.41
2018-07-26T07:11:25.313Z,1011.44
2018-07-26T07:12:25.319Z,1011.47
2018-07-26T07:13:25.328Z,1011.54
2018-07-26T07:14:25.335Z,1011.60
2018-07-26T07:15:25.337Z,1011.54
2018-07-26T07:16:25.346Z,1011.54
2018-07-26T07:17:25.357Z,1011.56
2018-07-26T07:18:25.365Z,1011.64
2018-07-26T07:19:25.371Z,1011.74
2018-07-26T07:20:25.420Z,1011.95
2018-07-26T07:21:25.384Z,1011.72
2018-07-26T07:22:25.392Z,1011.66
2018-07-26T07:23:25.405Z,1011.67
2018-07-26T07:24:25.415Z,1011.71
2018-07-26T07:25:25.423Z,1011.66
2018-07-26T07:26:25.432Z,1011.72
2018-07-26T07:27:25.435Z,1011.72
2018-07-26T07:28:25.450Z,1011.75
2018-07-26T07:29:25.476Z,1011.70
2018-07-26T07:30:25.465Z,1011.62
2018-07-26T07:31:25.478Z,1011.60
2018-07-26T07:32:25.489Z,1011.65
2018-07-26T07:33:25.494Z,1011.63
2018-07-26T07:34:25.506Z,1011.61
2018-07-26T07:35:25.535Z,1011.61
2018-07-26T07:36:25.535Z,1011.65
2018-07-26T07:37:25.540Z,1011.71
2018-07-26T07:38:25.550Z,1011.76
2018-07-26T07:39:25.555Z,1011.79
2018-07-26T07:40:25.565Z,1011.96
2018-07-26T07:41:25.595Z,1012.00
2018-07-26T07:42:25.587Z,1011.80
2018-07-26T07:43:25.603Z,1011.93
2018-07-26T07:44:25.614Z,1011.92
2018-07-26T07:45:25.625Z,1011.90
2018-07-26T07:46:25.636Z,1011.86
2018-07-26T07:47:25.713Z,1012.15
2018-07-26T07:48:25.655Z,1012.26
2018-07-26T07:49:25.672Z,1012.51
2018-07-26T07:50:25.682Z,1012.63
2018-07-26T07:51:25.690Z,1012.69
2018-07-26T07:52:25.702Z,1012.72
2018-07-26T07:53:25.717Z,1012.69
2018-07-26T07:54:25.728Z,1012.71
2018-07-26T07:55:25.747Z,1012.70
2018-07-26T07:56:25.761Z,1012.72
2018-07-26T07:57:25.775Z,1012.68
2018-07-26T07:58:25.787Z,1012.69
2018-07-26T07:59:25.876Z,1012.72
2018-07-26T08:00:25.813Z,1012.70
2018-07-26T08:01:25.828Z,1012.72
2018-07-26T08:02:25.844Z,1012.68
2018-07-26T08:03:25.864Z,1012.73
2018-07-26T08:04:25.883Z,1012.71
2018-07-26T08:05:25.956Z,1012.65
2018-07-26T08:06:25.908Z,1012.69
2018-07-26T08:07:25.929Z,1012.69
2018-07-26T08:08:25.948Z,1012.66
2018-07-26T08:09:25.965Z,1012.66
2018-07-26T08:10:25.981Z,1012.63
2018-07-26T08:11:25.997Z,1012.60
2018-07-26T08:12:26.012Z,1012.59
2018-07-26T08:13:26.031Z,1012.64
2018-07-26T08:14:26.047Z,1011.67
2018-07-26T08:15:26.071Z,1011.63
2018-07-26T08:16:26.088Z,1011.68
2018-07-26T08:17:26.107Z,1011.65
2018-07-26T08:18:26.126Z,1011.63
2018-07-26T08:19:26.139Z,1011.65
2018-07-26T08:20:26.159Z,1011.64
2018-07-26T08:21:26.249Z,1011.64
2018-07-26T08:22:26.199Z,1011.64
2018-07-26T08:23:26.216Z,1011.65
2018-07-26T08:24:26.237Z,1011.63
2018-07-26T08:25:26.254Z,1011.66
2018-07-26T08:26:26.272Z,1011.68
2018-07-26T08:27:26.295Z,1011.66
2018-07-26T08:28:26.319Z,1011.67
2018-07-26T08:29:26.405Z,1011.68
2018-07-26T08:30:26.353Z,1011.74
2018-07-26T08:31:26.371Z,1011.72
2018-07-26T08:32:26.391Z,1011.71
2018-07-26T08:33:26.408Z,1011.63
2018-07-26T08:34:26.426Z,1011.66
2018-07-26T08:35:26.451Z,1011.67
2018-07-26T08:36:26.471Z,1011.67
2018-07-26T08:37:26.487Z,1011.67
2018-07-26T08:38:26.507Z,1011.70
2018-07-26T08:39:26.540Z,1011.70
2018-07-26T08:40:26.554Z,1011.70
2018-07-26T08:41:26.574Z,1011.67
2018-07-26T08:42:26.594Z,1011.70
2018-07-26T08:43:26.610Z,1011.69
2018-07-26T08:44:26.637Z,1011.68
2018-07-26T08:45:26.653Z,1011.65
2018-07-26T08:46:26.672Z,1011.62
2018-07-26T08:47:26.698Z,1011.67
2018-07-26T08:48:26.721Z,1011.67
2018-07-26T08:49:26.741Z,1011.68
2018-07-26T08:50:26.760Z,1011.70
2018-07-26T08:51:26.779Z,1011.71
2018-07-26T08:52:26.799Z,1011.68
2018-07-26T08:53:26.826Z,1011.68
2018-07-26T08:54:26.850Z,1011.67
2018-07-26T08:55:26.863Z,1011.67
2018-07-26T08:56:26.887Z,1011.64
2018-07-26T08:57:26.912Z,1011.61
2018-07-26T08:58:26.928Z,1011.63
2018-07-26T08:59:26.955Z,1011.61
2018-07-26T09:00:26.976Z,1011.61
2018-07-26T09:01:27.004Z,1011.64
2018-07-26T09:02:27.020Z,1011.61
2018-07-26T09:03:27.036Z,1011.63
2018-07-26T09:04:27.062Z,1011.64
2018-07-26T09:05:27.080Z,1011.61
2018-07-26T09:06:27.100Z,1011.62
2018-07-26T09:07:27.127Z,1011.63
2018-07-26T09:08:27.148Z,1011.65
2018-07-26T09:09:27.166Z,1011.64
2018-07-26T09:10:27.191Z,1011.64
2018-07-26T09:11:27.250Z,1011.62
2018-07-26T09:12:27.234Z,1011.64
2018-07-26T09:13:27.299Z,1011.68
2018-07-26T09:14:27.278Z,1011.69
2018-07-26T09:15:27.295Z,1011.63
2018-07-26T09:16:27.316Z,1011.64
2018-07-26T09:17:27.339Z,1011.67
2018-07-26T09:18:27.358Z,1011.65
2018-07-26T09:19:27.387Z,1011.59
2018-07-26T09:20:27.406Z,1011.64
2018-07-26T09:21:27.428Z,1011.61
2018-07-26T09:22:27.448Z,1011.61
2018-07-26T09:23:27.467Z,1011.59
2018-07-26T09:24:27.508Z,1011.62
2018-07-26T09:25:27.519Z,1011.57
2018-07-26T09:26:27.534Z,1011.61
2018-07-26T09:27:27.551Z,1011.58
2018-07-26T09:28:27.574Z,1011.58
2018-07-26T09:29:27.595Z,1011.51
2018-07-26T09:30:27.618Z,1011.53
2018-07-26T09:31:27.644Z,1011.55
2018-07-26T09:32:27.666Z,1011.52
2018-07-26T09:33:27.687Z,1011.56
2018-07-26T09:34:27.707Z,1011.55
2018-07-26T09:35:27.762Z,1011.49
2018-07-26T09:36:27.748Z,1011.52
2018-07-26T09:37:27.770Z,1011.52
2018-07-26T09:38:27.792Z,1011.53
2018-07-26T09:39:27.819Z,1011.48
2018-07-26T09:40:27.845Z,1011.50
2018-07-26T09:41:27.859Z,1011.48
2018-07-26T09:42:27.883Z,1011.47
2018-07-26T09:43:27.908Z,1011.47
2018-07-26T09:44:27.929Z,1011.40
2018-07-26T09:45:27.952Z,1011.41
2018-07-26T09:46:27.974Z,1011.39
2018-07-26T09:47:28.063Z,1011.38
2018-07-26T09:48:28.026Z,1011.41
2018-07-26T09:49:28.073Z,1011.42
2018-07-26T09:50:28.062Z,1011.40
2018-07-26T09:51:28.087Z,1011.39
2018-07-26T09:52:28.111Z,1011.37
2018-07-26T09:53:28.134Z,1011.34
2018-07-26T09:54:28.154Z,1011.32
2018-07-26T09:55:28.172Z,1011.38
2018-07-26T09:56:28.196Z,1011.37
2018-07-26T09:57:28.223Z,1011.35
2018-07-26T09:58:28.243Z,1011.31
2018-07-26T09:59:28.261Z,1011.32
2018-07-26T10:00:28.405Z,1011.31
2018-07-26T10:01:28.305Z,1011.29
2018-07-26T10:02:28.334Z,1011.24
2018-07-26T10:03:28.354Z,1011.26
2018-07-26T10:04:28.376Z,1011.25
2018-07-26T10:05:28.399Z,1011.27
2018-07-26T10:06:28.420Z,1011.24
2018-07-26T10:07:28.441Z,1011.28
2018-07-26T10:08:28.463Z,1011.22
2018-07-26T10:09:28.484Z,1011.24
2018-07-26T10:10:28.507Z,1011.26
2018-07-26T10:11:28.533Z,1011.27
2018-07-26T10:12:28.556Z,1011.24
2018-07-26T10:13:28.573Z,1011.22
2018-07-26T10:14:28.595Z,1011.24
2018-07-26T10:15:28.623Z,1011.25
2018-07-26T10:16:28.645Z,1011.26
2018-07-26T10:17:28.667Z,1011.24
2018-07-26T10:18:28.688Z,1011.20
2018-07-26T10:19:28.706Z,1011.22
2018-07-26T10:20:28.733Z,1011.18
2018-07-26T10:21:28.751Z,1011.20
2018-07-26T10:22:28.774Z,1011.19
2018-07-26T10:23:28.802Z,1011.20
2018-07-26T10:24:28.823Z,1011.18
2018-07-26T10:25:28.847Z,1011.18
2018-07-26T10:26:28.870Z,1011.18
2018-07-26T10:27:28.887Z,1011.15
2018-07-26T10:28:28.912Z,1011.13
2018-07-26T10:29:28.937Z,1011.14
2018-07-26T10:30:28.960Z,1011.13
2018-07-26T10:31:28.976Z,1011.12
2018-07-26T10:32:29.000Z,1011.15
2018-07-26T10:33:29.022Z,1011.17
2018-07-26T10:34:29.045Z,1011.14
2018-07-26T10:35:29.072Z,1011.09
2018-07-26T10:36:29.095Z,1011.07
2018-07-26T10:37:29.118Z,1011.07
2018-07-26T10:38:29.139Z,1011.05
2018-07-26T10:39:29.161Z,1011.09
2018-07-26T10:40:29.181Z,1011.09
2018-07-26T10:41:29.203Z,1011.09
2018-07-26T10:42:29.224Z,1011.07
2018-07-26T10:43:29.251Z,1011.07
2018-07-26T10:44:29.278Z,1011.00
2018-07-26T10:45:29.294Z,1011.04
2018-07-26T10:46:29.333Z,1011.01
2018-07-26T10:47:29.342Z,1011.01
2018-07-26T10:48:29.365Z,1011.04
2018-07-26T10:49:29.388Z,1011.03
2018-07-26T10:50:29.414Z,1010.95
2018-07-26T10:51:29.430Z,1011.02
2018-07-26T10:52:29.454Z,1010.98
2018-07-26T10:53:29.475Z,1011.01
2018-07-26T10:54:29.496Z,1011.03
2018-07-26T10:55:29.524Z,1010.98
2018-07-26T10:56:29.548Z,1010.97
2018-07-26T10:57:29.568Z,1011.02
2018-07-26T10:58:29.589Z,1010.99
2018-07-26T10:59:29.607Z,1010.96
2018-07-26T11:00:29.636Z,1011.00
2018-07-26T11:01:29.659Z,1010.94
2018-07-26T11:02:29.677Z,1010.92
2018-07-26T11:03:29.698Z,1010.87
2018-07-26T11:04:29.717Z,1010.84
2018-07-26T11:05:29.740Z,1010.87
2018-07-26T11:06:29.761Z,1010.87
2018-07-26T11:07:29.787Z,1010.86
2018-07-26T11:08:29.808Z,1010.87
2018-07-26T11:09:29.845Z,1010.85
2018-07-26T11:10:29.851Z,1010.82
2018-07-26T11:11:29.869Z,1010.80
2018-07-26T11:12:29.890Z,1010.76
2018-07-26T11:13:29.912Z,1010.80
2018-07-26T11:14:29.932Z,1010.75
2018-07-26T11:15:29.959Z,1010.78
2018-07-26T11:16:29.995Z,1010.76
2018-07-26T11:17:29.997Z,1010.75
2018-07-26T11:18:30.019Z,1010.69
2018-07-26T11:19:30.048Z,1010.73
2018-07-26T11:20:30.066Z,1010.74
2018-07-26T11:21:30.088Z,1010.70
2018-07-26T11:22:30.108Z,1010.62
2018-07-26T11:23:30.123Z,1010.54
2018-07-26T11:24:30.145Z,1010.59
2018-07-26T11:25:30.199Z,1010.57
2018-07-26T11:26:30.183Z,1010.55
2018-07-26T11:27:30.209Z,1010.51
2018-07-26T11:28:30.228Z,1010.37
2018-07-26T11:29:30.275Z,1010.31
2018-07-26T11:30:30.268Z,1010.25
2018-07-26T11:31:30.280Z,1010.22
2018-07-26T11:32:30.315Z,1010.21
2018-07-26T11:33:30.322Z,1010.24
2018-07-26T11:34:30.338Z,1010.16
2018-07-26T11:35:30.356Z,1010.17
2018-07-26T11:36:30.371Z,1010.16
2018-07-26T11:37:30.388Z,1010.18
2018-07-26T11:38:30.406Z,1010.15
2018-07-26T11:39:30.426Z,1010.15
2018-07-26T11:40:30.442Z,1010.15
2018-07-26T11:41:30.466Z,1010.08
2018-07-26T11:42:30.473Z,1010.07
2018-07-26T11:43:30.485Z,1010.08
2018-07-26T11:44:30.499Z,1010.14
2018-07-26T11:45:30.515Z,1010.10
2018-07-26T11:46:30.528Z,1010.04
2018-07-26T11:47:30.549Z,1010.01
2018-07-26T11:48:30.563Z,1009.99
2018-07-26T11:49:30.573Z,1010.02
2018-07-26T11:50:30.585Z,1010.01
2018-07-26T11:51:30.604Z,1009.98
2018-07-26T11:52:30.619Z,1009.94
2018-07-26T11:53:30.632Z,1009.95
2018-07-26T11:54:30.644Z,1009.85
2018-07-26T11:55:30.654Z,1009.87
2018-07-26T11:56:30.666Z,1009.84
2018-07-26T11:57:30.679Z,1009.87
2018-07-26T11:58:30.690Z,1009.81
2018-07-26T11:59:30.707Z,1009.81
2018-07-26T12:00:30.719Z,1009.75
2018-07-26T12:01:30.773Z,1009.79
2018-07-26T12:02:30.818Z,1009.78
2018-07-26T12:03:30.750Z,1009.76
2018-07-26T12:04:30.763Z,1009.79
2018-07-26T12:05:30.779Z,1009.76